Time;durP1;ratioP1;P1;durP2;ratioP2;P2;SDS_P1;SDS_P2;PMS_P1;PMS_P2;Temp;Humidity;BMP_temperature;BMP_pressure;BME280_temperature;BME280_humidity;BME280_pressure;Samples;Min_cycle;Max_cycle;Signal;HPM_P1;HPM_P2
2022/06/25 00:00:53;;;;;;;0.15;0.15;;;;;;;;;;4142070;28;20141;-75
2022/06/25 00:02:55;;;;;;;0.30;0.30;;;;;;;;;;4139717;28;20145;-75
2022/06/25 00:07:18;;;;;;;;;;;;;;;;;;4142410;28;20058;-75
2022/06/25 00:09:20;;;;;;;1.40;0.20;;;;;;;;;;4146774;28;43888;-75
2022/06/25 00:13:43;;;;;;;0.60;0.43;;;;;;;;;;4146139;28;20166;-75
2022/06/25 00:15:45;;;;;;;0.25;0.10;;;;;;;;;;4140869;28;20055;-75
2022/06/25 00:17:47;;;;;;;0.20;0.20;;;;;;;;;;4140899;28;20062;-75
2022/06/25 00:19:49;;;;;;;1.38;0.10;;;;;;;;;;4140398;28;20062;-75
2022/06/25 00:21:51;;;;;;;0.30;0.20;;;;;;;;;;4139002;28;20163;-75
2022/06/25 00:23:54;;;;;;;0.10;0.10;;;;;;;;;;4134899;28;20657;-75
2022/06/25 00:25:56;;;;;;;0.22;0.20;;;;;;;;;;4144668;28;20050;-75
2022/06/25 00:27:58;;;;;;;0.30;0.20;;;;;;;;;;4137636;28;20061;-75
2022/06/25 00:30:00;;;;;;;0.20;0.20;;;;;;;;;;4138365;28;20157;-75
2022/06/25 00:32:04;;;;;;;0.30;0.10;;;;;;;;;;4139017;28;20059;-75
2022/06/25 00:34:06;;;;;;;0.38;0.17;;;;;;;;;;4136420;28;20059;-75
2022/06/25 00:36:09;;;;;;;0.20;0.20;;;;;;;;;;4138186;28;20065;-75
2022/06/25 00:38:11;;;;;;;0.25;0.25;;;;;;;;;;4134892;28;20066;-75
2022/06/25 00:40:13;;;;;;;0.77;0.35;;;;;;;;;;4144581;28;20085;-75
2022/06/25 00:42:15;;;;;;;0.10;0.10;;;;;;;;;;4135524;28;20070;-75
2022/06/25 00:44:17;;;;;;;0.47;0.20;;;;;;;;;;4135234;28;20077;-75
2022/06/25 00:46:19;;;;;;;0.17;0.15;;;;;;;;;;4141497;28;20061;-75
2022/06/25 00:48:21;;;;;;;0.32;0.20;;;;;;;;;;4141959;28;20062;-75
2022/06/25 00:50:23;;;;;;;0.10;0.10;;;;;;;;;;4140238;28;20058;-75
2022/06/25 00:52:26;;;;;;;0.85;0.20;;;;;;;;;;4143639;28;20796;-75
2022/06/25 00:54:30;;;;;;;3.40;0.28;;;;;;;;;;4137151;28;20162;-75
2022/06/25 00:56:33;;;;;;;0.30;0.30;;;;;;;;;;4138035;28;20063;-75
2022/06/25 00:58:38;;;;;;;0.20;0.20;;;;;;;;;;4144272;28;20111;-75
2022/06/25 01:00:40;;;;;;;0.20;0.20;;;;;;;;;;4141805;28;20061;-75
2022/06/25 01:02:43;;;;;;;0.30;0.28;;;;;;;;;;4142389;28;20065;-75
2022/06/25 01:04:45;;;;;;;0.38;0.20;;;;;;;;;;4142287;28;20121;-75
2022/06/25 01:06:47;;;;;;;0.35;0.30;;;;;;;;;;4142920;28;20066;-75
2022/06/25 01:08:49;;;;;;;0.30;0.30;;;;;;;;;;4143657;28;20064;-75
2022/06/25 01:10:51;;;;;;;0.20;0.20;;;;;;;;;;4140360;28;20161;-75
2022/06/25 01:12:53;;;;;;;0.47;0.47;;;;;;;;;;4142787;28;20763;-75
2022/06/25 01:15:08;;;;;;;0.20;0.20;;;;;;;;;;4141391;28;20066;-75
2022/06/25 01:17:10;;;;;;;0.20;0.20;;;;;;;;;;4142438;28;20688;-75
2022/06/25 01:19:12;;;;;;;0.45;0.20;;;;;;;;;;4141024;28;20065;-75
2022/06/25 01:21:14;;;;;;;0.20;0.20;;;;;;;;;;4141960;28;20065;-75
2022/06/25 01:23:16;;;;;;;1.40;0.10;;;;;;;;;;4142339;28;20063;-75
2022/06/25 01:25:19;;;;;;;0.30;0.25;;;;;;;;;;4142634;28;20046;-75
2022/06/25 01:27:21;;;;;;;0.30;0.30;;;;;;;;;;4137787;28;20060;-76
2022/06/25 01:29:23;;;;;;;0.25;0.25;;;;;;;;;;4136889;28;20078;-75
2022/06/25 01:31:25;;;;;;;0.43;0.20;;;;;;;;;;4137954;28;20050;-75
2022/06/25 01:33:27;;;;;;;0.52;0.40;;;;;;;;;;4137417;28;20050;-75
2022/06/25 01:35:29;;;;;;;0.20;0.20;;;;;;;;;;4136447;28;20054;-75
2022/06/25 01:37:32;;;;;;;1.75;0.20;;;;;;;;;;4140193;28;20061;-75
2022/06/25 01:39:35;;;;;;;3.40;0.20;;;;;;;;;;4140595;28;20065;-75
2022/06/25 01:41:37;;;;;;;0.20;0.20;;;;;;;;;;4137071;28;20185;-75
2022/06/25 01:43:39;;;;;;;0.20;0.20;;;;;;;;;;4134510;28;20051;-75
2022/06/25 01:45:41;;;;;;;0.63;0.20;;;;;;;;;;4139675;28;20881;-75
2022/06/25 01:47:44;;;;;;;0.30;0.30;;;;;;;;;;4133969;28;20065;-75
2022/06/25 01:49:46;;;;;;;0.20;0.20;;;;;;;;;;4134033;28;20157;-75
2022/06/25 01:51:48;;;;;;;0.10;0.10;;;;;;;;;;4140054;28;20152;-75
2022/06/25 01:53:50;;;;;;;0.30;0.20;;;;;;;;;;4137082;28;20851;-75
2022/06/25 01:55:52;;;;;;;1.58;0.30;;;;;;;;;;4135766;28;20062;-75
2022/06/25 01:57:54;;;;;;;0.30;0.30;;;;;;;;;;4145228;28;20062;-75
2022/06/25 01:59:57;;;;;;;0.65;0.28;;;;;;;;;;4135699;28;20103;-75
2022/06/25 02:01:59;;;;;;;0.20;0.20;;;;;;;;;;4139187;28;21861;-75
2022/06/25 02:04:01;;;;;;;0.57;0.30;;;;;;;;;;4146563;28;20061;-75
2022/06/25 02:06:03;;;;;;;0.63;0.43;;;;;;;;;;4145194;28;20050;-75
2022/06/25 02:08:07;;;;;;;0.65;0.20;;;;;;;;;;4141939;28;20059;-75
2022/06/25 02:10:09;;;;;;;0.10;0.10;;;;;;;;;;4143138;28;20629;-75
2022/06/25 02:12:11;;;;;;;0.95;0.30;;;;;;;;;;4136781;28;20058;-75
2022/06/25 02:14:13;;;;;;;0.20;0.20;;;;;;;;;;4137736;28;20058;-75
2022/06/25 02:16:16;;;;;;;0.20;0.20;;;;;;;;;;4139878;28;20058;-76
2022/06/25 02:18:18;;;;;;;0.30;0.30;;;;;;;;;;4143566;28;20918;-76
2022/06/25 02:20:21;;;;;;;2.10;0.30;;;;;;;;;;4143035;28;20806;-76
2022/06/25 02:22:23;;;;;;;0.35;0.30;;;;;;;;;;4141709;28;20058;-75
2022/06/25 02:24:25;;;;;;;0.10;0.10;;;;;;;;;;4142727;28;21210;-76
2022/06/25 02:26:27;;;;;;;0.30;0.30;;;;;;;;;;4141689;28;20062;-75
2022/06/25 02:28:29;;;;;;;0.90;0.20;;;;;;;;;;4141947;28;20062;-75
2022/06/25 02:30:32;;;;;;;0.20;0.20;;;;;;;;;;4141315;28;20058;-75
2022/06/25 02:32:34;;;;;;;0.20;0.10;;;;;;;;;;4141748;28;20224;-75
2022/06/25 02:34:36;;;;;;;0.10;0.10;;;;;;;;;;4140333;28;20640;-75
2022/06/25 02:36:38;;;;;;;0.28;0.28;;;;;;;;;;4139758;28;20149;-75
2022/06/25 02:38:40;;;;;;;0.20;0.20;;;;;;;;;;4141339;28;20154;-75
2022/06/25 02:40:42;;;;;;;0.20;0.20;;;;;;;;;;4143740;28;20054;-75
2022/06/25 02:42:44;;;;;;;0.20;0.20;;;;;;;;;;4138366;28;20065;-75
2022/06/25 02:44:47;;;;;;;0.20;0.20;;;;;;;;;;4138755;28;20153;-75
2022/06/25 02:46:49;;;;;;;0.20;0.20;;;;;;;;;;4138857;28;20148;-75
2022/06/25 02:48:51;;;;;;;0.20;0.20;;;;;;;;;;4137022;28;20117;-75
2022/06/25 02:50:53;;;;;;;0.10;0.10;;;;;;;;;;4139592;28;20296;-75
2022/06/25 02:52:55;;;;;;;1.65;0.30;;;;;;;;;;4136077;28;20058;-75
2022/06/25 02:54:57;;;;;;;0.20;0.20;;;;;;;;;;4138054;28;20059;-75
2022/06/25 02:59:20;;;;;;;0.15;0.15;;;;;;;;;;4142126;28;20059;-75
2022/06/25 03:01:26;;;;;;;0.20;0.20;;;;;;;;;;4145408;28;21297;-75
2022/06/25 03:03:28;;;;;;;0.20;0.20;;;;;;;;;;4134794;28;20120;-75
2022/06/25 03:05:30;;;;;;;0.22;0.22;;;;;;;;;;4133804;28;20053;-75
2022/06/25 03:07:32;;;;;;;0.13;0.13;;;;;;;;;;4136567;28;20085;-75
2022/06/25 03:09:35;;;;;;;3.10;0.30;;;;;;;;;;4136035;28;20975;-75
2022/06/25 03:11:38;;;;;;;0.28;0.20;;;;;;;;;;4145837;28;20101;-75
2022/06/25 03:13:40;;;;;;;0.10;0.10;;;;;;;;;;4142370;28;20059;-75
2022/06/25 03:15:42;;;;;;;0.20;0.20;;;;;;;;;;4133883;28;20062;-75
2022/06/25 03:17:44;;;;;;;0.25;0.20;;;;;;;;;;4145338;28;21260;-75
2022/06/25 03:19:46;;;;;;;0.10;0.10;;;;;;;;;;4145718;28;20065;-75
2022/06/25 03:21:48;;;;;;;2.55;0.20;;;;;;;;;;4138650;28;20149;-75
2022/06/25 03:23:50;;;;;;;0.30;0.20;;;;;;;;;;4135898;28;20063;-75
2022/06/25 03:25:52;;;;;;;0.20;0.20;;;;;;;;;;4137566;28;20837;-75
2022/06/25 03:27:54;;;;;;;0.10;0.10;;;;;;;;;;4136915;28;20065;-75
2022/06/25 03:29:57;;;;;;;0.57;0.10;;;;;;;;;;4139635;28;20080;-75
2022/06/25 03:31:59;;;;;;;0.30;0.30;;;;;;;;;;4141071;28;20842;-75
2022/06/25 03:34:01;;;;;;;0.20;0.20;;;;;;;;;;4140460;28;20054;-75
2022/06/25 03:36:03;;;;;;;0.30;0.20;;;;;;;;;;4138929;28;20058;-75
2022/06/25 03:38:06;;;;;;;0.75;0.20;;;;;;;;;;4139779;28;20890;-75
2022/06/25 03:40:08;;;;;;;0.10;0.10;;;;;;;;;;4140325;28;20158;-75
2022/06/25 03:42:10;;;;;;;0.20;0.20;;;;;;;;;;4141068;28;20059;-75
2022/06/25 03:44:12;;;;;;;0.10;0.10;;;;;;;;;;4139656;28;20054;-76
2022/06/25 03:46:14;;;;;;;0.47;0.40;;;;;;;;;;4143562;28;20106;-75
2022/06/25 03:48:17;;;;;;;0.50;0.10;;;;;;;;;;4141292;28;20063;-76
2022/06/25 03:50:20;;;;;;;0.98;0.13;;;;;;;;;;4140689;28;20058;-76
2022/06/25 03:52:22;;;;;;;0.20;0.20;;;;;;;;;;4141109;28;20086;-78
2022/06/25 03:54:24;;;;;;;0.20;0.20;;;;;;;;;;4140302;28;20255;-76
2022/06/25 03:56:27;;;;;;;0.10;0.10;;;;;;;;;;4139454;28;20054;-77
2022/06/25 03:58:29;;;;;;;0.20;0.20;;;;;;;;;;4138759;28;20059;-76
2022/06/25 04:00:31;;;;;;;0.10;0.10;;;;;;;;;;4142158;28;20065;-76
2022/06/25 04:02:33;;;;;;;0.20;0.20;;;;;;;;;;4143250;28;20859;-76
2022/06/25 04:04:35;;;;;;;0.17;0.17;;;;;;;;;;4144005;28;20062;-76
2022/06/25 04:06:37;;;;;;;0.30;0.28;;;;;;;;;;4144862;28;20176;-76
2022/06/25 04:08:39;;;;;;;0.28;0.28;;;;;;;;;;4144528;28;20059;-76
2022/06/25 04:10:42;;;;;;;1.05;0.20;;;;;;;;;;4145656;28;20058;-77
2022/06/25 04:12:44;;;;;;;0.10;0.10;;;;;;;;;;4143868;28;20058;-75
2022/06/25 04:14:46;;;;;;;0.15;0.15;;;;;;;;;;4145877;28;20860;-75
2022/06/25 04:16:49;;;;;;;0.75;0.30;;;;;;;;;;4146100;28;20874;-76
2022/06/25 04:18:51;;;;;;;0.10;0.10;;;;;;;;;;4143704;28;20097;-76
2022/06/25 04:20:53;;;;;;;0.25;0.20;;;;;;;;;;4143500;28;20063;-76
2022/06/25 04:22:55;;;;;;;0.20;0.20;;;;;;;;;;4146174;28;20094;-76
2022/06/25 04:24:57;;;;;;;0.30;0.20;;;;;;;;;;4145095;28;20062;-76
2022/06/25 04:26:59;;;;;;;0.25;0.20;;;;;;;;;;4143410;28;20061;-76
2022/06/25 04:29:04;;;;;;;0.20;0.20;;;;;;;;;;4142676;28;20649;-76
2022/06/25 04:31:06;;;;;;;0.25;0.20;;;;;;;;;;4139491;28;20058;-76
2022/06/25 04:33:09;;;;;;;0.17;0.10;;;;;;;;;;4143988;28;20117;-76
2022/06/25 04:35:11;;;;;;;0.10;0.10;;;;;;;;;;4140645;28;20098;-76
2022/06/25 04:37:13;;;;;;;0.55;0.30;;;;;;;;;;4137536;28;20066;-76
2022/06/25 04:39:15;;;;;;;0.25;0.20;;;;;;;;;;4143662;28;20061;-76
2022/06/25 04:41:17;;;;;;;0.20;0.20;;;;;;;;;;4138770;28;20154;-76
2022/06/25 04:43:19;;;;;;;0.20;0.20;;;;;;;;;;4145049;28;20735;-76
2022/06/25 04:45:21;;;;;;;0.20;0.20;;;;;;;;;;4141240;28;20169;-76
2022/06/25 04:47:23;;;;;;;0.20;0.20;;;;;;;;;;4140916;28;20225;-76
2022/06/25 04:49:26;;;;;;;0.10;0.10;;;;;;;;;;4141454;28;20058;-76
2022/06/25 04:51:28;;;;;;;0.35;0.20;;;;;;;;;;4139316;28;20059;-76
2022/06/25 04:53:30;;;;;;;1.08;0.20;;;;;;;;;;4140016;28;20097;-76
2022/06/25 04:55:32;;;;;;;0.20;0.20;;;;;;;;;;4143749;28;20182;-76
2022/06/25 04:57:34;;;;;;;0.65;0.20;;;;;;;;;;4142718;28;20161;-76
2022/06/25 04:59:37;;;;;;;0.20;0.20;;;;;;;;;;4142823;28;20069;-76
2022/06/25 05:01:39;;;;;;;0.20;0.20;;;;;;;;;;4143105;28;20203;-76
2022/06/25 05:03:41;;;;;;;0.20;0.20;;;;;;;;;;4142912;28;20065;-76
2022/06/25 05:05:44;;;;;;;0.65;0.17;;;;;;;;;;4141814;28;20680;-76
2022/06/25 05:07:46;;;;;;;0.55;0.28;;;;;;;;;;4142501;28;20054;-76
2022/06/25 05:09:48;;;;;;;0.25;0.20;;;;;;;;;;4144421;28;20085;-76
2022/06/25 05:11:51;;;;;;;0.08;0.08;;;;;;;;;;4139070;28;20058;-76
2022/06/25 05:13:53;;;;;;;0.55;0.20;;;;;;;;;;4147667;28;20058;-76
2022/06/25 05:15:55;;;;;;;0.10;0.10;;;;;;;;;;4140769;28;20153;-76
2022/06/25 05:17:57;;;;;;;0.20;0.20;;;;;;;;;;4144107;28;20936;-76
2022/06/25 05:19:59;;;;;;;0.25;0.22;;;;;;;;;;4139326;28;20077;-76
2022/06/25 05:22:01;;;;;;;0.55;0.32;;;;;;;;;;4139879;28;20061;-76
2022/06/25 05:24:03;;;;;;;0.10;0.10;;;;;;;;;;4139941;28;20865;-76
2022/06/25 05:26:05;;;;;;;0.65;0.22;;;;;;;;;;4138966;28;20117;-76
2022/06/25 05:28:08;;;;;;;0.20;0.20;;;;;;;;;;4136630;28;20881;-76
2022/06/25 05:30:10;;;;;;;0.13;0.13;;;;;;;;;;4136696;28;20782;-76
2022/06/25 05:32:12;;;;;;;0.10;0.10;;;;;;;;;;4140914;28;20172;-79
2022/06/25 05:34:14;;;;;;;0.80;0.10;;;;;;;;;;4144115;28;20054;-79
2022/06/25 05:36:17;;;;;;;0.20;0.20;;;;;;;;;;4138925;28;20085;-79
2022/06/25 05:38:19;;;;;;;0.20;0.20;;;;;;;;;;4140526;28;20062;-79
2022/06/25 05:40:21;;;;;;;0.65;0.10;;;;;;;;;;4136627;28;20062;-79
2022/06/25 05:42:23;;;;;;;0.10;0.10;;;;;;;;;;4138668;28;20049;-79
2022/06/25 05:44:25;;;;;;;0.20;0.20;;;;;;;;;;4139872;28;20834;-79
2022/06/25 05:46:28;;;;;;;0.63;0.20;;;;;;;;;;4133948;28;20083;-76
2022/06/25 05:48:30;;;;;;;0.20;0.10;;;;;;;;;;4136235;28;20129;-76
2022/06/25 05:50:32;;;;;;;0.17;0.17;;;;;;;;;;4137181;28;20059;-76
2022/06/25 05:52:34;;;;;;;0.28;0.20;;;;;;;;;;4145945;28;20177;-76
2022/06/25 05:54:37;;;;;;;0.22;0.10;;;;;;;;;;4137852;28;20058;-76
2022/06/25 05:56:39;;;;;;;0.20;0.20;;;;;;;;;;4138407;28;20771;-76
2022/06/25 05:58:41;;;;;;;0.10;0.10;;;;;;;;;;4137337;28;20058;-76
2022/06/25 06:00:43;;;;;;;2.45;0.90;;;;;;;;;;4139231;28;20190;-76
2022/06/25 06:02:45;;;;;;;0.25;0.25;;;;;;;;;;4141076;28;20919;-76
2022/06/25 06:04:47;;;;;;;0.15;0.15;;;;;;;;;;4141875;28;20873;-76
2022/06/25 06:06:51;;;;;;;0.20;0.20;;;;;;;;;;4140148;28;20902;-76
2022/06/25 06:08:53;;;;;;;0.20;0.20;;;;;;;;;;4139338;28;20117;-76
2022/06/25 06:10:55;;;;;;;0.63;0.30;;;;;;;;;;4140865;28;20061;-76
2022/06/25 06:12:57;;;;;;;0.30;0.28;;;;;;;;;;4143124;28;20059;-76
2022/06/25 06:14:59;;;;;;;0.20;0.20;;;;;;;;;;4141428;28;20058;-77
2022/06/25 06:17:01;;;;;;;0.20;0.20;;;;;;;;;;4140580;28;20065;-76
2022/06/25 06:19:03;;;;;;;0.20;0.20;;;;;;;;;;4140990;28;20121;-76
2022/06/25 06:21:05;;;;;;;0.15;0.10;;;;;;;;;;4142495;28;20058;-76
2022/06/25 06:23:07;;;;;;;0.30;0.20;;;;;;;;;;4139320;28;20069;-76
2022/06/25 06:25:09;;;;;;;0.22;0.20;;;;;;;;;;4142444;28;20870;-76
2022/06/25 06:27:11;;;;;;;0.10;0.10;;;;;;;;;;4141777;28;20063;-76
2022/06/25 06:29:13;;;;;;;0.25;0.10;;;;;;;;;;4143448;28;20069;-76
2022/06/25 06:31:15;;;;;;;0.10;0.10;;;;;;;;;;4140554;28;20066;-76
2022/06/25 06:33:18;;;;;;;0.10;0.10;;;;;;;;;;4141714;28;20058;-76
2022/06/25 06:35:20;;;;;;;1.00;0.10;;;;;;;;;;4136756;28;20143;-76
2022/06/25 06:37:22;;;;;;;0.25;0.17;;;;;;;;;;4140546;28;20153;-77
2022/06/25 06:39:24;;;;;;;0.13;0.13;;;;;;;;;;4139956;28;20058;-76
2022/06/25 06:41:26;;;;;;;0.20;0.20;;;;;;;;;;4139724;28;20066;-76
2022/06/25 06:43:28;;;;;;;0.30;0.20;;;;;;;;;;4137345;28;20795;-76
2022/06/25 06:45:31;;;;;;;0.25;0.10;;;;;;;;;;4137897;28;20865;-76
2022/06/25 06:47:34;;;;;;;0.10;0.10;;;;;;;;;;4135160;28;20059;-76
2022/06/25 06:49:38;;;;;;;0.30;0.15;;;;;;;;;;4134592;28;20973;-76
2022/06/25 06:51:40;;;;;;;0.32;0.20;;;;;;;;;;4133334;28;20174;-76
2022/06/25 06:53:42;;;;;;;0.10;0.10;;;;;;;;;;4132679;28;20073;-76
2022/06/25 06:55:44;;;;;;;0.20;0.20;;;;;;;;;;4136052;28;20181;-76
2022/06/25 06:57:46;;;;;;;0.20;0.20;;;;;;;;;;4134031;28;20097;-76
2022/06/25 06:59:48;;;;;;;0.20;0.17;;;;;;;;;;4135451;28;20246;-77
2022/06/25 07:01:50;;;;;;;0.20;0.20;;;;;;;;;;4134591;28;20175;-77
2022/06/25 07:03:53;;;;;;;2.33;0.20;;;;;;;;;;4143583;28;20132;-77
2022/06/25 07:05:55;;;;;;;0.52;0.08;;;;;;;;;;4141135;28;20058;-77
2022/06/25 07:07:57;;;;;;;0.90;0.32;;;;;;;;;;4140735;28;20062;-77
2022/06/25 07:09:59;;;;;;;0.25;0.17;;;;;;;;;;4142666;28;20062;-76
2022/06/25 07:12:01;;;;;;;0.15;0.15;;;;;;;;;;4140625;28;20795;-75
2022/06/25 07:14:04;;;;;;;0.63;0.20;;;;;;;;;;4143580;28;20085;-76
2022/06/25 07:16:06;;;;;;;0.17;0.10;;;;;;;;;;4146690;28;20062;-75
2022/06/25 07:18:08;;;;;;;0.20;0.20;;;;;;;;;;4144399;28;20047;-76
2022/06/25 07:20:11;;;;;;;0.13;0.10;;;;;;;;;;4146137;28;20062;-74
2022/06/25 07:22:13;;;;;;;0.50;0.10;;;;;;;;;;4144975;28;20051;-75
2022/06/25 07:24:15;;;;;;;0.08;0.08;;;;;;;;;;4145676;28;20169;-76
2022/06/25 07:26:18;;;;;;;0.40;0.20;;;;;;;;;;4144250;28;20878;-76
2022/06/25 07:28:20;;;;;;;2.45;0.30;;;;;;;;;;4147121;28;20816;-76
2022/06/25 07:30:22;;;;;;;0.30;0.30;;;;;;;;;;4146373;28;20069;-75
2022/06/25 07:32:24;;;;;;;0.30;0.10;;;;;;;;;;4143037;28;20173;-76
2022/06/25 07:34:26;;;;;;;0.52;0.38;;;;;;;;;;4145929;28;20101;-75
2022/06/25 07:36:28;;;;;;;2.28;0.35;;;;;;;;;;4146060;28;20870;-76
2022/06/25 07:38:31;;;;;;;3.00;0.60;;;;;;;;;;4145190;28;20069;-75
2022/06/25 07:40:33;;;;;;;2.03;0.50;;;;;;;;;;4155930;28;20782;-75
2022/06/25 07:42:35;;;;;;;8.23;0.93;;;;;;;;;;4137587;28;20889;-75
2022/06/25 07:44:37;;;;;;;3.45;0.65;;;;;;;;;;4145961;28;20141;-76
2022/06/25 07:46:39;;;;;;;1.67;0.75;;;;;;;;;;4143513;28;21107;-76
2022/06/25 07:48:42;;;;;;;3.55;0.70;;;;;;;;;;4148122;28;20069;-75
2022/06/25 07:53:04;;;;;;;;;;;;;;;;;;4149010;28;20061;-72
2022/06/25 07:55:07;;;;;;;3.20;0.80;;;;;;;;;;4145384;28;42822;-74
2022/06/25 07:57:09;;;;;;;2.15;0.60;;;;;;;;;;4144706;28;20054;-75
2022/06/25 07:59:11;;;;;;;1.65;0.38;;;;;;;;;;4145550;28;20071;-75
2022/06/25 08:01:13;;;;;;;3.30;0.77;;;;;;;;;;4149466;28;20062;-75
2022/06/25 08:03:15;;;;;;;3.75;0.75;;;;;;;;;;4148093;28;20054;-75
2022/06/25 08:05:17;;;;;;;3.60;0.52;;;;;;;;;;4146361;28;20673;-74
2022/06/25 08:07:19;;;;;;;2.28;0.88;;;;;;;;;;4147102;28;20132;-76
2022/06/25 08:09:22;;;;;;;5.35;1.10;;;;;;;;;;4145820;28;20854;-75
2022/06/25 08:11:25;;;;;;;6.28;0.93;;;;;;;;;;4141633;28;20953;-74
2022/06/25 08:13:27;;;;;;;2.20;0.80;;;;;;;;;;4142991;28;20069;-74
2022/06/25 08:15:29;;;;;;;4.60;1.80;;;;;;;;;;4145322;28;20133;-74
2022/06/25 08:17:31;;;;;;;4.55;1.80;;;;;;;;;;4149362;28;20067;-74
2022/06/25 08:19:35;;;;;;;3.55;1.73;;;;;;;;;;4149319;28;20101;-74
2022/06/25 08:21:37;;;;;;;2.97;1.42;;;;;;;;;;4148846;28;20765;-74
2022/06/25 08:23:39;;;;;;;1.88;1.35;;;;;;;;;;4146883;28;20061;-75
2022/06/25 08:25:41;;;;;;;1.75;1.10;;;;;;;;;;4145740;28;20858;-74
2022/06/25 08:27:49;;;;;;;8.43;1.20;;;;;;;;;;4147712;28;20058;-77
2022/06/25 08:29:51;;;;;;;4.25;0.70;;;;;;;;;;4147370;28;20066;-74
2022/06/25 08:31:53;;;;;;;3.78;1.55;;;;;;;;;;4147430;28;20853;-72
2022/06/25 08:33:55;;;;;;;2.28;0.98;;;;;;;;;;4146618;28;20066;-71
2022/06/25 08:35:58;;;;;;;3.20;1.05;;;;;;;;;;4141474;28;20094;-73
2022/06/25 08:38:00;;;;;;;3.90;1.58;;;;;;;;;;4146418;28;20058;-73
2022/06/25 08:40:02;;;;;;;5.10;0.80;;;;;;;;;;4143699;28;20065;-73
2022/06/25 08:42:04;;;;;;;9.07;1.17;;;;;;;;;;4142719;28;20142;-73
2022/06/25 08:44:06;;;;;;;4.72;1.08;;;;;;;;;;4141492;28;20063;-73
2022/06/25 08:46:08;;;;;;;2.83;0.98;;;;;;;;;;4141090;28;20069;-73
2022/06/25 08:48:16;;;;;;;7.05;1.70;;;;;;;;;;4142649;28;20054;-73
2022/06/25 08:50:21;;;;;;;2.45;0.60;;;;;;;;;;4143018;28;20090;-73
2022/06/25 08:52:23;;;;;;;5.78;1.50;;;;;;;;;;4141983;28;20177;-72
2022/06/25 08:54:26;;;;;;;3.78;0.70;;;;;;;;;;4141068;28;20058;-72
2022/06/25 08:56:29;;;;;;;6.10;1.17;;;;;;;;;;4142457;28;20093;-72
2022/06/25 08:58:31;;;;;;;1.27;0.60;;;;;;;;;;4145097;28;20063;-73
2022/06/25 09:00:34;;;;;;;6.72;1.58;;;;;;;;;;4144760;28;20059;-73
2022/06/25 09:02:37;;;;;;;3.60;1.20;;;;;;;;;;4138398;28;20145;-73
2022/06/25 09:04:39;;;;;;;3.30;1.40;;;;;;;;;;4144463;28;20170;-73
2022/06/25 09:06:41;;;;;;;3.63;0.93;;;;;;;;;;4142976;28;20058;-73
2022/06/25 09:08:44;;;;;;;3.63;0.98;;;;;;;;;;4141271;28;20050;-73
2022/06/25 09:10:47;;;;;;;1.10;0.73;;;;;;;;;;4141451;28;20806;-73
2022/06/25 09:12:50;;;;;;;6.88;1.80;;;;;;;;;;4138316;28;20054;-73
2022/06/25 09:14:52;;;;;;;4.30;1.23;;;;;;;;;;4143392;28;20058;-73
2022/06/25 09:17:12;;;;;;;4.57;0.82;;;;;;;;;;4154787;28;20108;-73
2022/06/25 09:19:27;;;;;;;3.28;0.80;;;;;;;;;;4134688;28;20066;-73
2022/06/25 09:21:40;;;;;;;5.10;1.00;;;;;;;;;;4133226;28;20062;-73
2022/06/25 09:24:03;;;;;;;10.23;1.95;;;;;;;;;;4136858;28;20055;-73
2022/06/25 09:26:10;;;;;;;4.57;1.48;;;;;;;;;;4133991;28;20055;-73
2022/06/25 09:28:28;;;;;;;2.58;0.90;;;;;;;;;;4134856;28;20118;-72
2022/06/25 09:30:32;;;;;;;1.02;0.80;;;;;;;;;;4134822;28;20042;-73
2022/06/25 09:32:44;;;;;;;2.35;0.85;;;;;;;;;;4138319;28;20090;-73
2022/06/25 09:34:46;;;;;;;4.38;0.70;;;;;;;;;;4137016;28;20064;-73
2022/06/25 09:36:48;;;;;;;1.05;0.68;;;;;;;;;;4138063;28;20063;-73
2022/06/25 09:38:50;;;;;;;2.65;0.70;;;;;;;;;;4141568;28;20944;-73
2022/06/25 09:40:54;;;;;;;5.57;1.13;;;;;;;;;;4141105;28;20102;-73
2022/06/25 09:43:00;;;;;;;2.33;1.00;;;;;;;;;;4145748;28;20058;-72
2022/06/25 09:45:06;;;;;;;1.63;0.90;;;;;;;;;;4140116;28;20061;-73
2022/06/25 09:47:09;;;;;;;2.45;0.50;;;;;;;;;;4142854;28;20157;-73
2022/06/25 09:49:22;;;;;;;3.67;1.10;;;;;;;;;;4144065;28;20054;-73
2022/06/25 09:51:26;;;;;;;2.70;0.98;;;;;;;;;;4141833;28;20066;-74
2022/06/25 09:53:28;;;;;;;1.30;1.20;;;;;;;;;;4142325;28;20058;-73
2022/06/25 09:55:34;;;;;;;4.65;0.82;;;;;;;;;;4140037;28;20165;-73
2022/06/25 09:57:37;;;;;;;2.72;0.82;;;;;;;;;;4143676;28;20058;-72
2022/06/25 09:59:41;;;;;;;1.55;0.57;;;;;;;;;;4140505;28;20914;-73
2022/06/25 10:01:43;;;;;;;3.80;1.23;;;;;;;;;;4138834;28;20926;-73
2022/06/25 10:03:46;;;;;;;3.55;0.70;;;;;;;;;;4141979;28;20188;-73
2022/06/25 10:05:48;;;;;;;0.98;0.52;;;;;;;;;;4136108;28;20097;-73
2022/06/25 10:08:00;;;;;;;5.45;1.38;;;;;;;;;;4141314;28;20063;-74
2022/06/25 10:10:02;;;;;;;1.55;0.73;;;;;;;;;;4141875;28;20050;-73
2022/06/25 10:12:05;;;;;;;2.67;1.00;;;;;;;;;;4140775;28;20162;-73
2022/06/25 10:14:07;;;;;;;2.22;0.73;;;;;;;;;;4141576;28;20793;-73
2022/06/25 10:16:10;;;;;;;1.63;0.75;;;;;;;;;;4142227;28;20106;-72
2022/06/25 10:18:12;;;;;;;0.95;0.60;;;;;;;;;;4140440;28;20065;-73
2022/06/25 10:20:15;;;;;;;4.00;0.80;;;;;;;;;;4137459;28;20791;-73
2022/06/25 10:22:17;;;;;;;2.08;0.80;;;;;;;;;;4138589;28;20874;-73
2022/06/25 10:24:19;;;;;;;3.85;0.52;;;;;;;;;;4146698;28;20059;-73
2022/06/25 10:26:22;;;;;;;2.85;0.90;;;;;;;;;;4144646;28;20062;-73
2022/06/25 10:28:25;;;;;;;2.20;0.55;;;;;;;;;;4138967;28;20055;-72
2022/06/25 10:30:46;;;;;;;1.02;0.60;;;;;;;;;;4136031;28;20081;-73
2022/06/25 10:32:52;;;;;;;2.85;0.82;;;;;;;;;;4134010;28;20062;-73
2022/06/25 10:34:55;;;;;;;5.78;0.65;;;;;;;;;;4135505;28;20933;-73
2022/06/25 10:36:59;;;;;;;2.55;0.80;;;;;;;;;;4134905;28;20178;-73
2022/06/25 10:39:21;;;;;;;1.17;0.60;;;;;;;;;;4137546;28;20065;-73
2022/06/25 10:43:45;;;;;;;4.28;1.52;;;;;;;;;;4138317;28;20872;-73
2022/06/25 10:45:48;;;;;;;1.35;0.50;;;;;;;;;;4136195;28;20066;-72
2022/06/25 10:47:57;;;;;;;1.85;0.80;;;;;;;;;;4136482;28;20070;-73
2022/06/25 10:50:18;;;;;;;3.55;2.35;;;;;;;;;;4136678;28;20093;-73
2022/06/25 10:52:20;;;;;;;2.90;0.50;;;;;;;;;;4135185;28;20063;-73
2022/06/25 10:54:25;;;;;;;2.08;0.70;;;;;;;;;;4144342;28;20100;-72
2022/06/25 10:56:31;;;;;;;0.80;0.50;;;;;;;;;;4140381;28;20046;-73
2022/06/25 10:58:43;;;;;;;1.15;0.60;;;;;;;;;;4138185;28;20632;-74
2022/06/25 11:00:52;;;;;;;2.58;0.70;;;;;;;;;;4136726;28;20059;-73
2022/06/25 11:02:55;;;;;;;1.83;0.65;;;;;;;;;;4136517;28;20065;-73
2022/06/25 11:04:57;;;;;;;0.75;0.45;;;;;;;;;;4137714;28;20054;-73
2022/06/25 11:07:10;;;;;;;1.58;0.57;;;;;;;;;;4136745;28;20180;-73
2022/06/25 11:09:13;;;;;;;1.38;0.57;;;;;;;;;;4153446;28;20057;-73
2022/06/25 11:11:29;;;;;;;1.23;0.55;;;;;;;;;;4142714;28;20062;-73
2022/06/25 11:13:32;;;;;;;1.50;0.70;;;;;;;;;;4140220;28;20177;-73
2022/06/25 11:15:42;;;;;;;1.60;0.80;;;;;;;;;;4143024;28;20101;-73
2022/06/25 11:17:44;;;;;;;2.63;0.88;;;;;;;;;;4143732;28;20789;-73
2022/06/25 11:19:48;;;;;;;2.58;0.80;;;;;;;;;;4144409;28;20157;-73
2022/06/25 11:21:50;;;;;;;0.47;0.32;;;;;;;;;;4142779;28;20805;-73
2022/06/25 11:23:53;;;;;;;0.40;0.40;;;;;;;;;;4144023;28;20174;-73
2022/06/25 11:30:40;;;;;;;1.75;0.60;;;;;;;;;;4143934;28;20902;-74
2022/06/25 11:32:44;;;;;;;5.88;0.98;;;;;;;;;;4142059;28;20062;-73
2022/06/25 11:34:51;;;;;;;1.00;0.43;;;;;;;;;;4145874;28;20777;-75
2022/06/25 11:37:06;;;;;;;0.60;0.40;;;;;;;;;;4141286;28;20058;-75
2022/06/25 11:39:08;;;;;;;1.50;0.70;;;;;;;;;;4145291;28;20065;-74
2022/06/25 11:41:28;;;;;;;0.55;0.50;;;;;;;;;;4140013;28;20114;-73
2022/06/25 11:43:30;;;;;;;2.45;1.00;;;;;;;;;;4142518;28;20058;-73
2022/06/25 11:45:32;;;;;;;2.25;0.68;;;;;;;;;;4142929;28;20063;-74
2022/06/25 11:47:35;;;;;;;2.05;0.70;;;;;;;;;;4137256;28;20058;-76
2022/06/25 11:49:39;;;;;;;3.28;1.00;;;;;;;;;;4141634;28;20059;-73
2022/06/25 11:51:45;;;;;;;1.45;0.38;;;;;;;;;;4140495;28;20873;-73
2022/06/25 11:53:47;;;;;;;1.75;0.85;;;;;;;;;;4139127;28;20060;-73
2022/06/25 11:55:59;;;;;;;1.30;0.60;;;;;;;;;;4136996;28;20098;-73
2022/06/25 11:58:01;;;;;;;0.50;0.50;;;;;;;;;;4136988;28;20065;-73
2022/06/25 12:00:04;;;;;;;0.77;0.50;;;;;;;;;;4134612;28;20186;-73
2022/06/25 12:02:06;;;;;;;0.50;0.50;;;;;;;;;;4134203;28;20059;-74
2022/06/25 12:04:09;;;;;;;0.80;0.40;;;;;;;;;;4135557;28;20065;-74
2022/06/25 12:06:11;;;;;;;0.73;0.43;;;;;;;;;;4138638;28;20161;-73
2022/06/25 12:08:14;;;;;;;0.88;0.68;;;;;;;;;;4142416;28;20058;-73
2022/06/25 12:10:16;;;;;;;1.23;0.57;;;;;;;;;;4140605;28;20058;-73
2022/06/25 12:12:19;;;;;;;0.90;0.82;;;;;;;;;;4138805;28;20061;-73
2022/06/25 12:14:22;;;;;;;2.67;0.50;;;;;;;;;;4142312;28;20058;-73
2022/06/25 12:16:40;;;;;;;1.33;0.40;;;;;;;;;;4139901;28;20778;-73
2022/06/25 12:18:43;;;;;;;0.38;0.32;;;;;;;;;;4142958;28;20060;-73
2022/06/25 12:20:55;;;;;;;0.63;0.40;;;;;;;;;;4145891;28;20058;-73
2022/06/25 12:22:57;;;;;;;0.60;0.60;;;;;;;;;;4144878;28;20062;-73
2022/06/25 12:25:00;;;;;;;1.02;0.47;;;;;;;;;;4139668;28;21263;-73
2022/06/25 12:27:02;;;;;;;1.10;0.30;;;;;;;;;;4140562;28;20739;-73
2022/06/25 12:29:08;;;;;;;1.25;0.70;;;;;;;;;;4138484;28;20058;-73
2022/06/25 12:31:11;;;;;;;0.93;0.77;;;;;;;;;;4143014;28;20069;-73
2022/06/25 12:33:13;;;;;;;1.38;0.40;;;;;;;;;;4142428;28;20133;-73
2022/06/25 12:35:17;;;;;;;1.25;0.47;;;;;;;;;;4141091;28;20062;-74